sensor_id;sensor_type;location;lat;lon;timestamp;temperature;humidity
31759;DHT22;36334;51.366;0.020;2022-12-07T00:02:18;5.80;99.90
31759;DHT22;36334;51.366;0.020;2022-12-07T00:05:04;5.80;99.90
31759;DHT22;36334;51.366;0.020;2022-12-07T00:07:51;5.80;99.90
31759;DHT22;36334;51.366;0.020;2022-12-07T00:10:37;5.80;99.90
31759;DHT22;36334;51.366;0.020;2022-12-07T00:13:23;5.80;99.90
31759;DHT22;36334;51.366;0.020;2022-12-07T00:16:20;5.80;99.90
31759;DHT22;36334;51.366;0.020;2022-12-07T00:19:07;5.80;99.90
31759;DHT22;36334;51.366;0.020;2022-12-07T00:21:53;5.90;99.90
31759;DHT22;36334;51.366;0.020;2022-12-07T00:24:39;5.80;99.90
31759;DHT22;36334;51.366;0.020;2022-12-07T00:27:24;5.70;99.90
31759;DHT22;36334;51.366;0.020;2022-12-07T00:30:11;5.80;99.90
31759;DHT22;36334;51.366;0.020;2022-12-07T00:32:57;5.80;99.90
31759;DHT22;36334;51.366;0.020;2022-12-07T00:35:43;5.80;99.90
31759;DHT22;36334;51.366;0.020;2022-12-07T00:38:31;5.70;99.90
31759;DHT22;36334;51.366;0.020;2022-12-07T00:41:19;5.80;99.90
31759;DHT22;36334;51.366;0.020;2022-12-07T00:44:07;5.80;99.90
31759;DHT22;36334;51.366;0.020;2022-12-07T00:46:54;5.70;99.90
31759;DHT22;36334;51.366;0.020;2022-12-07T00:49:41;5.70;99.90
31759;DHT22;36334;51.366;0.020;2022-12-07T00:52:27;5.70;99.90
31759;DHT22;36334;51.366;0.020;2022-12-07T00:55:14;5.60;99.90
31759;DHT22;36334;51.366;0.020;2022-12-07T00:58:00;5.60;99.90
31759;DHT22;36334;51.366;0.020;2022-12-07T01:00:46;5.60;99.90
31759;DHT22;36334;51.366;0.020;2022-12-07T01:03:35;5.60;99.90
31759;DHT22;36334;51.366;0.020;2022-12-07T01:06:22;5.50;99.90
31759;DHT22;36334;51.366;0.020;2022-12-07T01:09:09;5.50;99.90
31759;DHT22;36334;51.366;0.020;2022-12-07T01:11:55;5.50;99.90
31759;DHT22;36334;51.366;0.020;2022-12-07T01:14:42;5.40;99.90
31759;DHT22;36334;51.366;0.020;2022-12-07T01:17:28;5.40;99.90
31759;DHT22;36334;51.366;0.020;2022-12-07T01:20:15;5.40;99.90
31759;DHT22;36334;51.366;0.020;2022-12-07T01:23:01;5.30;99.90
31759;DHT22;36334;51.366;0.020;2022-12-07T01:25:56;5.30;99.90
31759;DHT22;36334;51.366;0.020;2022-12-07T01:28:43;5.20;99.90
31759;DHT22;36334;51.366;0.020;2022-12-07T01:31:29;5.20;99.90
31759;DHT22;36334;51.366;0.020;2022-12-07T01:34:15;5.20;99.90
31759;DHT22;36334;51.366;0.020;2022-12-07T01:37:01;5.30;99.90
31759;DHT22;36334;51.366;0.020;2022-12-07T01:39:51;5.20;99.90
31759;DHT22;36334;51.366;0.020;2022-12-07T01:42:37;5.10;99.90
31759;DHT22;36334;51.366;0.020;2022-12-07T01:45:38;5.10;99.90
31759;DHT22;36334;51.366;0.020;2022-12-07T01:48:36;5.10;99.90
31759;DHT22;36334;51.366;0.020;2022-12-07T01:55:04;5.10;99.90
31759;DHT22;36334;51.366;0.020;2022-12-07T01:57:53;5.00;99.90
31759;DHT22;36334;51.366;0.020;2022-12-07T02:00:41;5.00;99.90
31759;DHT22;36334;51.366;0.020;2022-12-07T02:03:44;5.00;99.90
31759;DHT22;36334;51.366;0.020;2022-12-07T02:06:31;4.90;99.90
31759;DHT22;36334;51.366;0.020;2022-12-07T02:09:20;5.00;99.90
31759;DHT22;36334;51.366;0.020;2022-12-07T02:12:06;5.00;99.90
31759;DHT22;36334;51.366;0.020;2022-12-07T02:14:52;5.00;99.90
31759;DHT22;36334;51.366;0.020;2022-12-07T02:27:41;4.90;99.90
31759;DHT22;36334;51.366;0.020;2022-12-07T02:30:33;4.80;99.90
31759;DHT22;36334;51.366;0.020;2022-12-07T02:39:01;4.70;99.90
31759;DHT22;36334;51.366;0.020;2022-12-07T02:41:44;4.70;99.90
31759;DHT22;36334;51.366;0.020;2022-12-07T02:44:32;4.50;99.90
31759;DHT22;36334;51.366;0.020;2022-12-07T02:47:20;4.50;99.90
31759;DHT22;36334;51.366;0.020;2022-12-07T02:50:07;4.50;99.90
31759;DHT22;36334;51.366;0.020;2022-12-07T02:52:54;4.50;99.90
31759;DHT22;36334;51.366;0.020;2022-12-07T02:55:41;4.40;99.90
31759;DHT22;36334;51.366;0.020;2022-12-07T03:01:48;4.50;99.90
31759;DHT22;36334;51.366;0.020;2022-12-07T03:10:54;4.70;99.90
31759;DHT22;36334;51.366;0.020;2022-12-07T03:17:00;4.80;99.90
31759;DHT22;36334;51.366;0.020;2022-12-07T03:19:49;4.80;99.90
31759;DHT22;36334;51.366;0.020;2022-12-07T03:22:40;5.00;99.90
31759;DHT22;36334;51.366;0.020;2022-12-07T03:25:27;4.80;99.90
31759;DHT22;36334;51.366;0.020;2022-12-07T03:28:18;4.80;99.90
31759;DHT22;36334;51.366;0.020;2022-12-07T03:31:46;4.80;99.90
31759;DHT22;36334;51.366;0.020;2022-12-07T03:34:31;4.80;99.90
31759;DHT22;36334;51.366;0.020;2022-12-07T03:38:00;4.80;99.90
31759;DHT22;36334;51.366;0.020;2022-12-07T03:41:00;4.80;99.90
31759;DHT22;36334;51.366;0.020;2022-12-07T03:43:47;4.80;99.90
31759;DHT22;36334;51.366;0.020;2022-12-07T03:49:48;4.90;99.90
31759;DHT22;36334;51.366;0.020;2022-12-07T03:52:42;4.90;99.90
31759;DHT22;36334;51.366;0.020;2022-12-07T03:55:31;4.90;99.90
31759;DHT22;36334;51.366;0.020;2022-12-07T03:58:20;4.90;99.90
31759;DHT22;36334;51.366;0.020;2022-12-07T04:01:07;4.90;99.90
31759;DHT22;36334;51.366;0.020;2022-12-07T04:03:53;5.00;99.90
31759;DHT22;36334;51.366;0.020;2022-12-07T04:06:39;5.10;99.90
31759;DHT22;36334;51.366;0.020;2022-12-07T04:09:25;5.10;99.90
31759;DHT22;36334;51.366;0.020;2022-12-07T04:12:11;5.00;99.90
31759;DHT22;36334;51.366;0.020;2022-12-07T04:14:58;5.20;99.90
31759;DHT22;36334;51.366;0.020;2022-12-07T04:17:44;5.10;99.90
31759;DHT22;36334;51.366;0.020;2022-12-07T04:20:30;5.10;99.90
31759;DHT22;36334;51.366;0.020;2022-12-07T04:23:16;5.10;99.90
31759;DHT22;36334;51.366;0.020;2022-12-07T04:26:02;5.10;99.90
31759;DHT22;36334;51.366;0.020;2022-12-07T04:28:48;5.10;99.90
31759;DHT22;36334;51.366;0.020;2022-12-07T04:31:35;5.10;99.90
31759;DHT22;36334;51.366;0.020;2022-12-07T04:34:21;5.10;99.90
31759;DHT22;36334;51.366;0.020;2022-12-07T04:37:07;5.20;99.90
31759;DHT22;36334;51.366;0.020;2022-12-07T04:39:53;5.00;99.90
31759;DHT22;36334;51.366;0.020;2022-12-07T04:42:40;5.10;99.90
31759;DHT22;36334;51.366;0.020;2022-12-07T04:45:26;5.10;99.90
31759;DHT22;36334;51.366;0.020;2022-12-07T04:48:12;5.00;99.90
31759;DHT22;36334;51.366;0.020;2022-12-07T04:50:59;5.00;99.90
31759;DHT22;36334;51.366;0.020;2022-12-07T04:53:45;4.90;99.90
31759;DHT22;36334;51.366;0.020;2022-12-07T04:56:34;4.90;99.90
31759;DHT22;36334;51.366;0.020;2022-12-07T04:59:21;4.90;99.90
31759;DHT22;36334;51.366;0.020;2022-12-07T05:02:07;4.80;99.90
31759;DHT22;36334;51.366;0.020;2022-12-07T05:04:53;4.90;99.90
31759;DHT22;36334;51.366;0.020;2022-12-07T05:07:39;5.00;99.90
31759;DHT22;36334;51.366;0.020;2022-12-07T05:10:28;4.90;99.90
31759;DHT22;36334;51.366;0.020;2022-12-07T05:13:15;4.90;99.90
31759;DHT22;36334;51.366;0.020;2022-12-07T05:16:01;5.00;99.90
31759;DHT22;36334;51.366;0.020;2022-12-07T05:18:48;5.10;99.90
31759;DHT22;36334;51.366;0.020;2022-12-07T05:21:34;4.90;99.90
31759;DHT22;36334;51.366;0.020;2022-12-07T05:24:20;4.90;99.90
31759;DHT22;36334;51.366;0.020;2022-12-07T05:27:07;4.90;99.90
31759;DHT22;36334;51.366;0.020;2022-12-07T05:29:54;4.90;99.90
31759;DHT22;36334;51.366;0.020;2022-12-07T05:32:42;5.00;99.90
31759;DHT22;36334;51.366;0.020;2022-12-07T05:35:28;4.90;99.90
31759;DHT22;36334;51.366;0.020;2022-12-07T05:38:14;4.90;99.90
31759;DHT22;36334;51.366;0.020;2022-12-07T05:41:02;4.90;99.90
31759;DHT22;36334;51.366;0.020;2022-12-07T05:43:48;4.90;99.90
31759;DHT22;36334;51.366;0.020;2022-12-07T05:46:37;4.90;99.90
31759;DHT22;36334;51.366;0.020;2022-12-07T05:49:24;4.90;99.90
31759;DHT22;36334;51.366;0.020;2022-12-07T05:52:11;4.80;99.90
31759;DHT22;36334;51.366;0.020;2022-12-07T05:54:57;4.80;99.90
31759;DHT22;36334;51.366;0.020;2022-12-07T05:57:43;4.80;99.90
31759;DHT22;36334;51.366;0.020;2022-12-07T06:00:49;4.70;99.90
31759;DHT22;36334;51.366;0.020;2022-12-07T06:03:36;4.80;99.90
31759;DHT22;36334;51.366;0.020;2022-12-07T06:06:22;4.80;99.90
31759;DHT22;36334;51.366;0.020;2022-12-07T06:09:09;4.80;99.90
31759;DHT22;36334;51.366;0.020;2022-12-07T06:11:56;4.90;99.90
31759;DHT22;36334;51.366;0.020;2022-12-07T06:15:01;4.90;99.90
31759;DHT22;36334;51.366;0.020;2022-12-07T06:17:47;4.90;99.90
31759;DHT22;36334;51.366;0.020;2022-12-07T06:20:33;4.90;99.90
31759;DHT22;36334;51.366;0.020;2022-12-07T06:23:20;5.00;99.90
31759;DHT22;36334;51.366;0.020;2022-12-07T06:26:09;5.00;99.90
31759;DHT22;36334;51.366;0.020;2022-12-07T06:28:56;5.10;99.90
31759;DHT22;36334;51.366;0.020;2022-12-07T06:31:42;5.10;99.90
31759;DHT22;36334;51.366;0.020;2022-12-07T06:34:28;5.00;99.90
31759;DHT22;36334;51.366;0.020;2022-12-07T06:37:15;5.00;99.90
31759;DHT22;36334;51.366;0.020;2022-12-07T06:40:00;5.00;99.90
31759;DHT22;36334;51.366;0.020;2022-12-07T06:42:48;5.10;99.90
31759;DHT22;36334;51.366;0.020;2022-12-07T06:45:34;5.00;99.90
31759;DHT22;36334;51.366;0.020;2022-12-07T06:48:20;5.10;99.90
31759;DHT22;36334;51.366;0.020;2022-12-07T06:51:06;5.10;99.90
31759;DHT22;36334;51.366;0.020;2022-12-07T06:53:53;5.10;99.90
31759;DHT22;36334;51.366;0.020;2022-12-07T06:56:39;5.10;99.90
31759;DHT22;36334;51.366;0.020;2022-12-07T06:59:26;5.10;99.90
31759;DHT22;36334;51.366;0.020;2022-12-07T07:02:15;5.10;99.90
31759;DHT22;36334;51.366;0.020;2022-12-07T07:05:02;5.10;99.90
31759;DHT22;36334;51.366;0.020;2022-12-07T07:07:49;5.10;99.90
31759;DHT22;36334;51.366;0.020;2022-12-07T07:10:55;5.10;99.90
31759;DHT22;36334;51.366;0.020;2022-12-07T07:13:42;5.10;99.90
31759;DHT22;36334;51.366;0.020;2022-12-07T07:16:29;5.10;99.90
31759;DHT22;36334;51.366;0.020;2022-12-07T07:19:16;5.10;99.90
31759;DHT22;36334;51.366;0.020;2022-12-07T07:22:05;5.10;99.90
31759;DHT22;36334;51.366;0.020;2022-12-07T07:24:52;5.10;99.90
31759;DHT22;36334;51.366;0.020;2022-12-07T07:27:38;5.00;99.90
31759;DHT22;36334;51.366;0.020;2022-12-07T07:30:24;5.00;99.90
31759;DHT22;36334;51.366;0.020;2022-12-07T07:33:11;5.00;99.90
31759;DHT22;36334;51.366;0.020;2022-12-07T07:35:57;5.10;99.90
31759;DHT22;36334;51.366;0.020;2022-12-07T07:38:43;5.00;99.90
31759;DHT22;36334;51.366;0.020;2022-12-07T07:41:29;5.00;99.90
31759;DHT22;36334;51.366;0.020;2022-12-07T07:44:15;4.90;99.90
31759;DHT22;36334;51.366;0.020;2022-12-07T07:47:02;5.00;99.90
31759;DHT22;36334;51.366;0.020;2022-12-07T07:49:48;4.90;99.90
31759;DHT22;36334;51.366;0.020;2022-12-07T07:52:34;4.90;99.90
31759;DHT22;36334;51.366;0.020;2022-12-07T07:55:20;5.00;99.90
31759;DHT22;36334;51.366;0.020;2022-12-07T07:58:07;4.90;99.90
31759;DHT22;36334;51.366;0.020;2022-12-07T08:00:53;4.90;99.90
31759;DHT22;36334;51.366;0.020;2022-12-07T08:03:39;4.90;99.90
31759;DHT22;36334;51.366;0.020;2022-12-07T08:06:25;4.90;99.90
31759;DHT22;36334;51.366;0.020;2022-12-07T08:09:17;4.80;99.90
31759;DHT22;36334;51.366;0.020;2022-12-07T08:12:03;4.90;99.90
31759;DHT22;36334;51.366;0.020;2022-12-07T08:14:53;4.80;99.90
31759;DHT22;36334;51.366;0.020;2022-12-07T08:17:46;4.80;99.90
31759;DHT22;36334;51.366;0.020;2022-12-07T08:20:34;4.80;99.90
31759;DHT22;36334;51.366;0.020;2022-12-07T08:23:21;4.90;99.90
31759;DHT22;36334;51.366;0.020;2022-12-07T08:26:17;4.80;99.90
31759;DHT22;36334;51.366;0.020;2022-12-07T08:29:03;4.80;99.90
31759;DHT22;36334;51.366;0.020;2022-12-07T08:31:49;4.80;99.90
31759;DHT22;36334;51.366;0.020;2022-12-07T08:34:36;4.90;99.90
31759;DHT22;36334;51.366;0.020;2022-12-07T08:37:23;4.90;99.90
31759;DHT22;36334;51.366;0.020;2022-12-07T08:40:10;4.90;99.90
31759;DHT22;36334;51.366;0.020;2022-12-07T08:42:57;4.90;99.90
31759;DHT22;36334;51.366;0.020;2022-12-07T08:45:44;4.90;99.90
31759;DHT22;36334;51.366;0.020;2022-12-07T08:48:30;4.80;99.90
31759;DHT22;36334;51.366;0.020;2022-12-07T08:51:16;5.10;99.90
31759;DHT22;36334;51.366;0.020;2022-12-07T08:54:06;5.10;99.90
31759;DHT22;36334;51.366;0.020;2022-12-07T08:56:54;5.00;99.90
31759;DHT22;36334;51.366;0.020;2022-12-07T08:59:44;5.00;99.90
31759;DHT22;36334;51.366;0.020;2022-12-07T09:02:31;5.20;99.90
31759;DHT22;36334;51.366;0.020;2022-12-07T09:05:17;5.20;99.90
31759;DHT22;36334;51.366;0.020;2022-12-07T09:08:04;5.10;99.90
31759;DHT22;36334;51.366;0.020;2022-12-07T09:10:51;5.00;99.90
31759;DHT22;36334;51.366;0.020;2022-12-07T09:13:37;5.10;99.90
31759;DHT22;36334;51.366;0.020;2022-12-07T09:16:23;5.00;99.90
31759;DHT22;36334;51.366;0.020;2022-12-07T09:19:10;5.10;99.90
31759;DHT22;36334;51.366;0.020;2022-12-07T09:21:56;5.30;99.90
31759;DHT22;36334;51.366;0.020;2022-12-07T09:24:42;5.10;99.90
31759;DHT22;36334;51.366;0.020;2022-12-07T09:27:29;5.20;99.90
31759;DHT22;36334;51.366;0.020;2022-12-07T09:30:16;5.20;99.90
31759;DHT22;36334;51.366;0.020;2022-12-07T09:33:02;5.30;99.90
31759;DHT22;36334;51.366;0.020;2022-12-07T09:35:50;5.20;99.90
31759;DHT22;36334;51.366;0.020;2022-12-07T09:38:37;5.10;99.90
31759;DHT22;36334;51.366;0.020;2022-12-07T09:41:24;5.00;99.90
31759;DHT22;36334;51.366;0.020;2022-12-07T09:44:24;5.00;99.90
31759;DHT22;36334;51.366;0.020;2022-12-07T09:47:10;5.00;99.90
31759;DHT22;36334;51.366;0.020;2022-12-07T09:50:03;5.00;99.90
31759;DHT22;36334;51.366;0.020;2022-12-07T09:53:02;4.90;99.90
31759;DHT22;36334;51.366;0.020;2022-12-07T09:55:52;5.20;99.90
31759;DHT22;36334;51.366;0.020;2022-12-07T09:58:39;4.90;99.90
31759;DHT22;36334;51.366;0.020;2022-12-07T10:01:29;5.00;99.90
31759;DHT22;36334;51.366;0.020;2022-12-07T10:04:24;5.00;99.90
31759;DHT22;36334;51.366;0.020;2022-12-07T10:07:15;5.00;99.90
31759;DHT22;36334;51.366;0.020;2022-12-07T10:10:06;5.10;99.90
31759;DHT22;36334;51.366;0.020;2022-12-07T10:13:04;5.10;99.90
31759;DHT22;36334;51.366;0.020;2022-12-07T10:15:54;5.10;99.90
31759;DHT22;36334;51.366;0.020;2022-12-07T10:18:41;5.20;99.90
31759;DHT22;36334;51.366;0.020;2022-12-07T10:21:28;5.00;99.90
31759;DHT22;36334;51.366;0.020;2022-12-07T10:24:14;5.10;99.90
31759;DHT22;36334;51.366;0.020;2022-12-07T10:27:01;5.10;99.90
31759;DHT22;36334;51.366;0.020;2022-12-07T10:29:49;5.10;99.90
31759;DHT22;36334;51.366;0.020;2022-12-07T10:32:36;5.20;99.90
31759;DHT22;36334;51.366;0.020;2022-12-07T10:35:28;5.20;99.90
31759;DHT22;36334;51.366;0.020;2022-12-07T10:38:16;5.20;99.90
31759;DHT22;36334;51.366;0.020;2022-12-07T10:41:07;5.30;99.90
31759;DHT22;36334;51.366;0.020;2022-12-07T10:43:57;5.30;99.90
31759;DHT22;36334;51.366;0.020;2022-12-07T10:47:26;5.30;99.90
31759;DHT22;36334;51.366;0.020;2022-12-07T10:50:17;5.40;99.90
31759;DHT22;36334;51.366;0.020;2022-12-07T11:09:30;5.60;99.90
31759;DHT22;36334;51.366;0.020;2022-12-07T11:21:57;5.70;99.90
31759;DHT22;36334;51.366;0.020;2022-12-07T11:25:11;5.70;99.90
31759;DHT22;36334;51.366;0.020;2022-12-07T11:31:18;5.80;99.90
31759;DHT22;36334;51.366;0.020;2022-12-07T11:37:21;5.80;99.90
31759;DHT22;36334;51.366;0.020;2022-12-07T11:40:29;5.80;99.90
31759;DHT22;36334;51.366;0.020;2022-12-07T11:43:26;5.70;99.90
31759;DHT22;36334;51.366;0.020;2022-12-07T11:46:15;5.80;99.90
31759;DHT22;36334;51.366;0.020;2022-12-07T11:51:51;5.70;99.90
31759;DHT22;36334;51.366;0.020;2022-12-07T11:54:41;5.70;99.90
31759;DHT22;36334;51.366;0.020;2022-12-07T11:57:37;5.60;99.90
31759;DHT22;36334;51.366;0.020;2022-12-07T12:00:34;5.60;99.90
31759;DHT22;36334;51.366;0.020;2022-12-07T12:03:30;5.60;99.90
31759;DHT22;36334;51.366;0.020;2022-12-07T12:06:19;5.70;99.90
31759;DHT22;36334;51.366;0.020;2022-12-07T12:15:59;5.70;99.90
31759;DHT22;36334;51.366;0.020;2022-12-07T12:18:51;5.70;99.90
31759;DHT22;36334;51.366;0.020;2022-12-07T12:21:41;5.70;99.90
31759;DHT22;36334;51.366;0.020;2022-12-07T12:24:29;5.80;99.90
31759;DHT22;36334;51.366;0.020;2022-12-07T12:27:32;5.80;99.90
31759;DHT22;36334;51.366;0.020;2022-12-07T12:39:17;5.60;99.90
31759;DHT22;36334;51.366;0.020;2022-12-07T12:42:20;5.50;99.90
31759;DHT22;36334;51.366;0.020;2022-12-07T12:48:39;5.50;99.90
31759;DHT22;36334;51.366;0.020;2022-12-07T12:51:40;5.50;99.90
31759;DHT22;36334;51.366;0.020;2022-12-07T12:54:29;5.50;99.90
31759;DHT22;36334;51.366;0.020;2022-12-07T12:57:26;5.40;99.90
31759;DHT22;36334;51.366;0.020;2022-12-07T13:03:01;5.40;99.90
31759;DHT22;36334;51.366;0.020;2022-12-07T13:05:47;5.40;99.90
31759;DHT22;36334;51.366;0.020;2022-12-07T13:08:34;5.40;99.90
31759;DHT22;36334;51.366;0.020;2022-12-07T13:11:41;5.60;99.90
31759;DHT22;36334;51.366;0.020;2022-12-07T13:20:55;5.50;99.90
31759;DHT22;36334;51.366;0.020;2022-12-07T13:29:19;5.60;99.90
31759;DHT22;36334;51.366;0.020;2022-12-07T13:32:26;5.50;99.90
31759;DHT22;36334;51.366;0.020;2022-12-07T13:35:35;5.60;99.90
31759;DHT22;36334;51.366;0.020;2022-12-07T13:38:32;5.60;99.90
31759;DHT22;36334;51.366;0.020;2022-12-07T13:41:24;5.60;99.90
31759;DHT22;36334;51.366;0.020;2022-12-07T13:44:22;5.60;99.90
31759;DHT22;36334;51.366;0.020;2022-12-07T13:47:17;5.70;99.90
31759;DHT22;36334;51.366;0.020;2022-12-07T13:50:28;5.70;99.90
31759;DHT22;36334;51.366;0.020;2022-12-07T13:53:18;5.80;99.90
31759;DHT22;36334;51.366;0.020;2022-12-07T13:56:13;6.00;99.90
31759;DHT22;36334;51.366;0.020;2022-12-07T13:59:00;6.10;99.90
31759;DHT22;36334;51.366;0.020;2022-12-07T14:01:48;6.10;99.90
31759;DHT22;36334;51.366;0.020;2022-12-07T14:04:37;6.20;99.90
31759;DHT22;36334;51.366;0.020;2022-12-07T14:07:27;6.10;99.90
31759;DHT22;36334;51.366;0.020;2022-12-07T14:13:37;6.10;99.90
31759;DHT22;36334;51.366;0.020;2022-12-07T14:22:38;6.10;99.90
31759;DHT22;36334;51.366;0.020;2022-12-07T14:25:25;6.20;99.90
31759;DHT22;36334;51.366;0.020;2022-12-07T14:28:33;6.20;99.90
31759;DHT22;36334;51.366;0.020;2022-12-07T14:31:24;6.30;99.90
31759;DHT22;36334;51.366;0.020;2022-12-07T14:34:15;6.30;99.90
31759;DHT22;36334;51.366;0.020;2022-12-07T14:37:01;6.30;99.90
31759;DHT22;36334;51.366;0.020;2022-12-07T14:39:47;6.40;99.90
31759;DHT22;36334;51.366;0.020;2022-12-07T14:42:35;6.40;99.90
31759;DHT22;36334;51.366;0.020;2022-12-07T14:45:23;6.40;99.90
31759;DHT22;36334;51.366;0.020;2022-12-07T14:48:13;6.40;99.90
31759;DHT22;36334;51.366;0.020;2022-12-07T14:51:19;6.40;99.90
31759;DHT22;36334;51.366;0.020;2022-12-07T14:54:29;6.40;99.90
31759;DHT22;36334;51.366;0.020;2022-12-07T14:57:21;6.30;99.90
31759;DHT22;36334;51.366;0.020;2022-12-07T15:00:14;6.20;99.90
31759;DHT22;36334;51.366;0.020;2022-12-07T15:03:00;6.20;99.90
31759;DHT22;36334;51.366;0.020;2022-12-07T15:05:47;6.20;99.90
31759;DHT22;36334;51.366;0.020;2022-12-07T15:08:33;6.10;99.90
31759;DHT22;36334;51.366;0.020;2022-12-07T15:11:22;6.10;99.90
31759;DHT22;36334;51.366;0.020;2022-12-07T15:14:09;6.10;99.90
31759;DHT22;36334;51.366;0.020;2022-12-07T15:16:56;6.10;99.90
31759;DHT22;36334;51.366;0.020;2022-12-07T15:20:03;6.00;99.90
31759;DHT22;36334;51.366;0.020;2022-12-07T15:22:52;5.90;99.90
31759;DHT22;36334;51.366;0.020;2022-12-07T15:25:46;5.90;99.90
31759;DHT22;36334;51.366;0.020;2022-12-07T15:28:33;5.80;99.90
31759;DHT22;36334;51.366;0.020;2022-12-07T15:31:19;5.70;99.90
31759;DHT22;36334;51.366;0.020;2022-12-07T15:34:26;5.60;99.90
31759;DHT22;36334;51.366;0.020;2022-12-07T15:37:24;5.50;99.90
31759;DHT22;36334;51.366;0.020;2022-12-07T15:40:14;5.40;99.90
31759;DHT22;36334;51.366;0.020;2022-12-07T15:43:01;5.40;99.90
31759;DHT22;36334;51.366;0.020;2022-12-07T15:45:49;5.30;99.90
31759;DHT22;36334;51.366;0.020;2022-12-07T15:48:35;5.20;99.90
31759;DHT22;36334;51.366;0.020;2022-12-07T15:51:21;5.20;99.90
31759;DHT22;36334;51.366;0.020;2022-12-07T15:54:24;5.20;99.90
31759;DHT22;36334;51.366;0.020;2022-12-07T15:57:10;5.10;99.90
31759;DHT22;36334;51.366;0.020;2022-12-07T15:59:59;5.10;99.90
31759;DHT22;36334;51.366;0.020;2022-12-07T16:02:45;5.00;99.90
31759;DHT22;36334;51.366;0.020;2022-12-07T16:05:31;5.00;99.90
31759;DHT22;36334;51.366;0.020;2022-12-07T16:08:19;5.10;99.90
31759;DHT22;36334;51.366;0.020;2022-12-07T16:11:06;5.00;99.90
31759;DHT22;36334;51.366;0.020;2022-12-07T16:13:52;5.00;99.90
31759;DHT22;36334;51.366;0.020;2022-12-07T16:16:38;5.00;99.90
31759;DHT22;36334;51.366;0.020;2022-12-07T16:19:26;4.90;99.90
31759;DHT22;36334;51.366;0.020;2022-12-07T16:22:12;4.90;99.90
31759;DHT22;36334;51.366;0.020;2022-12-07T16:24:58;4.80;99.90
31759;DHT22;36334;51.366;0.020;2022-12-07T16:27:44;4.80;99.90
31759;DHT22;36334;51.366;0.020;2022-12-07T16:30:30;4.80;99.90
31759;DHT22;36334;51.366;0.020;2022-12-07T16:33:16;4.70;99.90
31759;DHT22;36334;51.366;0.020;2022-12-07T16:36:05;4.70;99.90
31759;DHT22;36334;51.366;0.020;2022-12-07T16:38:52;4.70;99.90
31759;DHT22;36334;51.366;0.020;2022-12-07T16:41:39;4.60;99.90
31759;DHT22;36334;51.366;0.020;2022-12-07T16:44:31;4.60;99.90
31759;DHT22;36334;51.366;0.020;2022-12-07T16:47:17;4.60;99.90
31759;DHT22;36334;51.366;0.020;2022-12-07T16:50:04;4.60;99.90
31759;DHT22;36334;51.366;0.020;2022-12-07T16:52:52;4.60;99.90
31759;DHT22;36334;51.366;0.020;2022-12-07T16:55:40;4.60;99.90
31759;DHT22;36334;51.366;0.020;2022-12-07T16:58:26;4.60;99.90
31759;DHT22;36334;51.366;0.020;2022-12-07T17:01:18;4.50;99.90
31759;DHT22;36334;51.366;0.020;2022-12-07T17:04:08;4.50;99.90
31759;DHT22;36334;51.366;0.020;2022-12-07T17:06:54;4.50;99.90
31759;DHT22;36334;51.366;0.020;2022-12-07T17:09:40;4.40;99.90
31759;DHT22;36334;51.366;0.020;2022-12-07T17:12:27;4.40;99.90
31759;DHT22;36334;51.366;0.020;2022-12-07T17:15:17;4.40;99.90
31759;DHT22;36334;51.366;0.020;2022-12-07T17:18:03;4.30;99.90
31759;DHT22;36334;51.366;0.020;2022-12-07T17:20:53;4.30;99.90
31759;DHT22;36334;51.366;0.020;2022-12-07T17:23:39;4.30;99.90
31759;DHT22;36334;51.366;0.020;2022-12-07T17:26:28;4.30;99.90
31759;DHT22;36334;51.366;0.020;2022-12-07T17:29:23;4.20;99.90
31759;DHT22;36334;51.366;0.020;2022-12-07T17:32:09;4.10;99.90
31759;DHT22;36334;51.366;0.020;2022-12-07T17:34:57;4.10;99.90
31759;DHT22;36334;51.366;0.020;2022-12-07T17:37:46;4.10;99.90
31759;DHT22;36334;51.366;0.020;2022-12-07T17:40:36;4.10;99.90
31759;DHT22;36334;51.366;0.020;2022-12-07T17:43:23;4.00;99.90
31759;DHT22;36334;51.366;0.020;2022-12-07T17:46:12;4.00;99.90
31759;DHT22;36334;51.366;0.020;2022-12-07T17:48:59;4.00;99.90
31759;DHT22;36334;51.366;0.020;2022-12-07T17:51:46;4.00;99.90
31759;DHT22;36334;51.366;0.020;2022-12-07T17:54:51;3.90;99.90
31759;DHT22;36334;51.366;0.020;2022-12-07T17:57:37;3.90;99.90
31759;DHT22;36334;51.366;0.020;2022-12-07T18:00:25;3.90;99.90
31759;DHT22;36334;51.366;0.020;2022-12-07T18:03:11;3.80;99.90
31759;DHT22;36334;51.366;0.020;2022-12-07T18:05:59;3.80;99.90
31759;DHT22;36334;51.366;0.020;2022-12-07T18:08:49;3.80;99.90
31759;DHT22;36334;51.366;0.020;2022-12-07T18:11:38;3.80;99.90
31759;DHT22;36334;51.366;0.020;2022-12-07T18:14:24;3.70;99.90
31759;DHT22;36334;51.366;0.020;2022-12-07T18:17:11;3.60;99.90
31759;DHT22;36334;51.366;0.020;2022-12-07T18:19:57;3.60;99.90
31759;DHT22;36334;51.366;0.020;2022-12-07T18:22:46;3.60;99.90
31759;DHT22;36334;51.366;0.020;2022-12-07T18:25:32;3.60;99.90
31759;DHT22;36334;51.366;0.020;2022-12-07T18:28:18;3.50;99.90
31759;DHT22;36334;51.366;0.020;2022-12-07T18:31:06;3.50;99.90
31759;DHT22;36334;51.366;0.020;2022-12-07T18:34:05;3.50;99.90
31759;DHT22;36334;51.366;0.020;2022-12-07T18:36:57;3.40;99.90
31759;DHT22;36334;51.366;0.020;2022-12-07T18:39:46;3.40;99.90
31759;DHT22;36334;51.366;0.020;2022-12-07T18:42:35;3.30;99.90
31759;DHT22;36334;51.366;0.020;2022-12-07T18:45:24;3.30;99.90
31759;DHT22;36334;51.366;0.020;2022-12-07T18:48:15;3.30;99.90
31759;DHT22;36334;51.366;0.020;2022-12-07T18:51:03;3.30;99.90
31759;DHT22;36334;51.366;0.020;2022-12-07T18:53:50;3.30;99.90
31759;DHT22;36334;51.366;0.020;2022-12-07T18:56:38;3.20;99.90
31759;DHT22;36334;51.366;0.020;2022-12-07T18:59:25;3.10;99.90
31759;DHT22;36334;51.366;0.020;2022-12-07T19:02:29;3.10;99.90
31759;DHT22;36334;51.366;0.020;2022-12-07T19:05:22;3.10;99.90
31759;DHT22;36334;51.366;0.020;2022-12-07T19:08:09;3.10;99.90
31759;DHT22;36334;51.366;0.020;2022-12-07T19:10:55;3.00;99.90
31759;DHT22;36334;51.366;0.020;2022-12-07T19:14:08;3.30;99.90
31759;DHT22;36334;51.366;0.020;2022-12-07T19:17:07;3.00;99.90
31759;DHT22;36334;51.366;0.020;2022-12-07T19:19:54;3.00;99.90
31759;DHT22;36334;51.366;0.020;2022-12-07T19:22:41;3.00;99.90
31759;DHT22;36334;51.366;0.020;2022-12-07T19:25:27;3.00;99.90
31759;DHT22;36334;51.366;0.020;2022-12-07T19:28:14;3.00;99.90
31759;DHT22;36334;51.366;0.020;2022-12-07T19:31:05;2.90;99.90
31759;DHT22;36334;51.366;0.020;2022-12-07T19:33:54;2.90;99.90
31759;DHT22;36334;51.366;0.020;2022-12-07T19:36:42;2.90;99.90
31759;DHT22;36334;51.366;0.020;2022-12-07T19:39:28;3.20;99.90
31759;DHT22;36334;51.366;0.020;2022-12-07T19:42:14;2.90;99.90
31759;DHT22;36334;51.366;0.020;2022-12-07T19:45:01;2.80;99.90
31759;DHT22;36334;51.366;0.020;2022-12-07T19:47:48;3.10;99.90
31759;DHT22;36334;51.366;0.020;2022-12-07T19:50:34;2.90;99.90
31759;DHT22;36334;51.366;0.020;2022-12-07T19:53:20;2.80;99.90
31759;DHT22;36334;51.366;0.020;2022-12-07T19:56:07;2.80;99.90
31759;DHT22;36334;51.366;0.020;2022-12-07T19:58:53;2.80;99.90
31759;DHT22;36334;51.366;0.020;2022-12-07T20:01:40;2.80;99.90